sensor_id;sensor_type;location;lat;lon;timestamp;temperature;humidity
22769;DHT22;13001;51.968;5.918;2023-04-08T09:36:20;6.20;71.50
22769;DHT22;13001;51.968;5.918;2023-04-08T09:38:47;36.30;29.20
22769;DHT22;13001;51.968;5.918;2023-04-08T09:41:15;35.40;29.30
22769;DHT22;13001;51.968;5.918;2023-04-08T09:43:43;34.50;30.30
22769;DHT22;13001;51.968;5.918;2023-04-08T09:46:11;33.60;31.90
22769;DHT22;13001;51.968;5.918;2023-04-08T09:48:39;33.00;33.70
22769;DHT22;13001;51.968;5.918;2023-04-08T09:51:07;32.40;34.90
22769;DHT22;13001;51.968;5.918;2023-04-08T09:53:34;31.70;35.80
22769;DHT22;13001;51.968;5.918;2023-04-08T09:56:03;31.00;37.10
22769;DHT22;13001;51.968;5.918;2023-04-08T10:52:19;30.20;38.50
22769;DHT22;13001;51.968;5.918;2023-04-08T10:54:48;21.60;47.50
22769;DHT22;13001;51.968;5.918;2023-04-08T10:57:23;20.60;46.90
22769;DHT22;13001;51.968;5.918;2023-04-08T10:59:51;20.10;47.80
22769;DHT22;13001;51.968;5.918;2023-04-08T11:02:19;19.90;48.90
22769;DHT22;13001;51.968;5.918;2023-04-08T11:04:46;19.80;48.90
22769;DHT22;13001;51.968;5.918;2023-04-08T11:07:14;19.80;48.20
22769;DHT22;13001;51.968;5.918;2023-04-08T11:09:41;19.70;47.50
22769;DHT22;13001;51.968;5.918;2023-04-08T11:12:10;19.80;47.60
22769;DHT22;13001;51.968;5.918;2023-04-08T11:14:39;19.70;48.10
22769;DHT22;13001;51.968;5.918;2023-04-08T11:17:09;19.70;49.40
22769;DHT22;13001;51.968;5.918;2023-04-08T11:19:37;20.00;49.60
22769;DHT22;13001;51.968;5.918;2023-04-08T11:22:06;20.30;49.60
22769;DHT22;13001;51.968;5.918;2023-04-08T11:24:36;20.50;48.40
22769;DHT22;13001;51.968;5.918;2023-04-08T11:27:04;20.40;47.80
22769;DHT22;13001;51.968;5.918;2023-04-08T11:29:32;20.30;49.50
22769;DHT22;13001;51.968;5.918;2023-04-08T11:32:00;20.40;49.50
22769;DHT22;13001;51.968;5.918;2023-04-08T11:34:28;20.30;48.00
22769;DHT22;13001;51.968;5.918;2023-04-08T11:36:56;20.20;47.30
22769;DHT22;13001;51.968;5.918;2023-04-08T11:39:24;20.00;47.40
22769;DHT22;13001;51.968;5.918;2023-04-08T11:41:52;19.90;47.40
22769;DHT22;13001;51.968;5.918;2023-04-08T11:44:21;19.70;49.00
22769;DHT22;13001;51.968;5.918;2023-04-08T11:46:52;19.60;49.80
22769;DHT22;13001;51.968;5.918;2023-04-08T11:49:23;19.50;49.70
22769;DHT22;13001;51.968;5.918;2023-04-08T11:51:55;19.30;51.10
22769;DHT22;13001;51.968;5.918;2023-04-08T11:54:27;19.20;51.30
22769;DHT22;13001;51.968;5.918;2023-04-08T11:56:55;19.10;51.60
22769;DHT22;13001;51.968;5.918;2023-04-08T11:59:25;19.00;51.00
22769;DHT22;13001;51.968;5.918;2023-04-08T12:01:52;19.00;50.50
22769;DHT22;13001;51.968;5.918;2023-04-08T12:04:20;19.00;49.70
22769;DHT22;13001;51.968;5.918;2023-04-08T12:06:47;18.90;49.00
22769;DHT22;13001;51.968;5.918;2023-04-08T12:09:15;18.70;48.90
22769;DHT22;13001;51.968;5.918;2023-04-08T12:11:43;18.60;49.10
22769;DHT22;13001;51.968;5.918;2023-04-08T12:14:11;18.50;49.70
22769;DHT22;13001;51.968;5.918;2023-04-08T12:16:38;18.60;49.50
22769;DHT22;13001;51.968;5.918;2023-04-08T12:19:06;18.60;49.80
22769;DHT22;13001;51.968;5.918;2023-04-08T12:21:35;18.60;50.20
22769;DHT22;13001;51.968;5.918;2023-04-08T12:24:04;18.50;50.90
22769;DHT22;13001;51.968;5.918;2023-04-08T12:26:31;18.40;51.60
22769;DHT22;13001;51.968;5.918;2023-04-08T12:28:59;18.40;52.50
22769;DHT22;13001;51.968;5.918;2023-04-08T12:31:27;18.50;52.90
22769;DHT22;13001;51.968;5.918;2023-04-08T12:33:54;18.90;53.80
22769;DHT22;13001;51.968;5.918;2023-04-08T12:36:22;19.50;53.70
22769;DHT22;13001;51.968;5.918;2023-04-08T12:38:49;19.80;51.00
22769;DHT22;13001;51.968;5.918;2023-04-08T12:41:17;19.80;49.70
22769;DHT22;13001;51.968;5.918;2023-04-08T12:43:44;19.90;48.40
22769;DHT22;13001;51.968;5.918;2023-04-08T12:46:12;19.90;47.90
22769;DHT22;13001;51.968;5.918;2023-04-08T12:48:39;19.90;48.70
22769;DHT22;13001;51.968;5.918;2023-04-08T12:51:09;19.90;47.40
22769;DHT22;13001;51.968;5.918;2023-04-08T12:53:36;19.80;47.60
22769;DHT22;13001;51.968;5.918;2023-04-08T12:56:04;19.70;47.70
22769;DHT22;13001;51.968;5.918;2023-04-08T12:58:31;19.50;48.30
22769;DHT22;13001;51.968;5.918;2023-04-08T13:00:59;19.40;49.20
22769;DHT22;13001;51.968;5.918;2023-04-08T13:03:26;19.10;50.20
22769;DHT22;13001;51.968;5.918;2023-04-08T13:05:55;18.90;51.30
22769;DHT22;13001;51.968;5.918;2023-04-08T13:08:24;18.60;51.10
22769;DHT22;13001;51.968;5.918;2023-04-08T13:10:52;18.40;52.20
22769;DHT22;13001;51.968;5.918;2023-04-08T13:13:20;18.20;52.80
22769;DHT22;13001;51.968;5.918;2023-04-08T13:15:48;17.90;53.60
22769;DHT22;13001;51.968;5.918;2023-04-08T13:18:16;17.80;54.50
22769;DHT22;13001;51.968;5.918;2023-04-08T13:20:44;17.70;55.00
22769;DHT22;13001;51.968;5.918;2023-04-08T13:23:11;17.60;55.60
22769;DHT22;13001;51.968;5.918;2023-04-08T13:25:40;17.60;56.20
22769;DHT22;13001;51.968;5.918;2023-04-08T13:28:11;17.60;56.40
22769;DHT22;13001;51.968;5.918;2023-04-08T13:30:38;17.70;57.00
22769;DHT22;13001;51.968;5.918;2023-04-08T13:33:06;17.80;57.50
22769;DHT22;13001;51.968;5.918;2023-04-08T13:35:33;17.80;57.40
22769;DHT22;13001;51.968;5.918;2023-04-08T13:38:01;17.90;57.10
22769;DHT22;13001;51.968;5.918;2023-04-08T13:40:28;17.90;56.60
22769;DHT22;13001;51.968;5.918;2023-04-08T13:42:56;17.90;56.20
22769;DHT22;13001;51.968;5.918;2023-04-08T13:45:23;17.80;55.60
22769;DHT22;13001;51.968;5.918;2023-04-08T13:47:51;17.60;55.70
22769;DHT22;13001;51.968;5.918;2023-04-08T13:50:18;17.50;55.60
22769;DHT22;13001;51.968;5.918;2023-04-08T13:52:46;17.50;55.90
22769;DHT22;13001;51.968;5.918;2023-04-08T13:55:14;17.50;56.50
22769;DHT22;13001;51.968;5.918;2023-04-08T13:57:42;17.50;57.40
22769;DHT22;13001;51.968;5.918;2023-04-08T14:00:11;17.50;57.60
22769;DHT22;13001;51.968;5.918;2023-04-08T14:02:39;17.60;58.60
22769;DHT22;13001;51.968;5.918;2023-04-08T14:05:06;17.60;57.60
22769;DHT22;13001;51.968;5.918;2023-04-08T14:07:38;17.60;56.30
22769;DHT22;13001;51.968;5.918;2023-04-08T14:10:05;17.50;55.90
22769;DHT22;13001;51.968;5.918;2023-04-08T14:12:33;17.50;56.90
22769;DHT22;13001;51.968;5.918;2023-04-08T14:15:00;17.40;57.70
22769;DHT22;13001;51.968;5.918;2023-04-08T14:17:28;17.30;58.40
22769;DHT22;13001;51.968;5.918;2023-04-08T14:19:55;17.20;58.50
22769;DHT22;13001;51.968;5.918;2023-04-08T14:22:24;17.10;58.80
22769;DHT22;13001;51.968;5.918;2023-04-08T14:24:52;16.70;59.10
22769;DHT22;13001;51.968;5.918;2023-04-08T14:27:21;16.30;60.60
22769;DHT22;13001;51.968;5.918;2023-04-08T14:29:48;16.00;62.60
22769;DHT22;13001;51.968;5.918;2023-04-08T14:32:16;15.90;62.70
22769;DHT22;13001;51.968;5.918;2023-04-08T14:34:44;15.90;63.20
22769;DHT22;13001;51.968;5.918;2023-04-08T14:37:11;15.90;62.90
22769;DHT22;13001;51.968;5.918;2023-04-08T14:39:39;15.90;62.70
22769;DHT22;13001;51.968;5.918;2023-04-08T14:42:06;15.90;63.50
22769;DHT22;13001;51.968;5.918;2023-04-08T14:44:34;15.90;63.00
22769;DHT22;13001;51.968;5.918;2023-04-08T14:47:01;15.80;63.20
22769;DHT22;13001;51.968;5.918;2023-04-08T14:49:29;15.80;63.10
22769;DHT22;13001;51.968;5.918;2023-04-08T14:51:56;15.80;63.70
22769;DHT22;13001;51.968;5.918;2023-04-08T14:54:24;15.80;64.20
22769;DHT22;13001;51.968;5.918;2023-04-08T14:56:51;15.90;64.20
22769;DHT22;13001;51.968;5.918;2023-04-08T14:59:19;15.90;64.40
22769;DHT22;13001;51.968;5.918;2023-04-08T15:01:47;15.80;64.40
22769;DHT22;13001;51.968;5.918;2023-04-08T15:04:14;15.70;65.10
22769;DHT22;13001;51.968;5.918;2023-04-08T15:06:42;15.80;65.40
22769;DHT22;13001;51.968;5.918;2023-04-08T15:09:09;15.80;65.00
22769;DHT22;13001;51.968;5.918;2023-04-08T15:11:40;15.80;65.50
22769;DHT22;13001;51.968;5.918;2023-04-08T15:14:08;15.80;66.30
22769;DHT22;13001;51.968;5.918;2023-04-08T15:16:35;15.70;67.20
22769;DHT22;13001;51.968;5.918;2023-04-08T15:19:03;15.60;68.20
22769;DHT22;13001;51.968;5.918;2023-04-08T15:21:31;15.60;68.90
22769;DHT22;13001;51.968;5.918;2023-04-08T15:23:58;15.50;69.00
22769;DHT22;13001;51.968;5.918;2023-04-08T15:26:26;15.60;69.50
22769;DHT22;13001;51.968;5.918;2023-04-08T15:28:54;15.50;69.10
22769;DHT22;13001;51.968;5.918;2023-04-08T15:31:23;15.40;69.70
22769;DHT22;13001;51.968;5.918;2023-04-08T15:33:51;15.30;70.70
22769;DHT22;13001;51.968;5.918;2023-04-08T15:36:19;15.30;71.10
22769;DHT22;13001;51.968;5.918;2023-04-08T15:38:47;15.30;71.60
22769;DHT22;13001;51.968;5.918;2023-04-08T15:41:16;15.30;72.50
22769;DHT22;13001;51.968;5.918;2023-04-08T15:43:44;15.40;71.80
22769;DHT22;13001;51.968;5.918;2023-04-08T15:46:19;15.60;71.60
22769;DHT22;13001;51.968;5.918;2023-04-08T15:48:47;15.60;71.50
22769;DHT22;13001;51.968;5.918;2023-04-08T15:51:16;15.50;72.80
22769;DHT22;13001;51.968;5.918;2023-04-08T15:53:43;15.40;72.10
22769;DHT22;13001;51.968;5.918;2023-04-08T15:56:14;15.40;72.60
22769;DHT22;13001;51.968;5.918;2023-04-08T15:58:43;15.40;72.90
22769;DHT22;13001;51.968;5.918;2023-04-08T16:01:12;15.40;72.70
22769;DHT22;13001;51.968;5.918;2023-04-08T16:03:39;15.30;72.70
22769;DHT22;13001;51.968;5.918;2023-04-08T16:06:07;15.30;73.30
22769;DHT22;13001;51.968;5.918;2023-04-08T16:08:35;15.20;74.00
22769;DHT22;13001;51.968;5.918;2023-04-08T16:11:04;15.10;73.80
22769;DHT22;13001;51.968;5.918;2023-04-08T16:13:33;15.10;74.10
22769;DHT22;13001;51.968;5.918;2023-04-08T16:16:03;15.10;74.40
22769;DHT22;13001;51.968;5.918;2023-04-08T16:18:30;15.20;74.90
22769;DHT22;13001;51.968;5.918;2023-04-08T16:20:58;15.30;74.50
22769;DHT22;13001;51.968;5.918;2023-04-08T16:23:25;15.40;74.50
22769;DHT22;13001;51.968;5.918;2023-04-08T16:25:53;15.50;74.40
22769;DHT22;13001;51.968;5.918;2023-04-08T16:28:21;15.50;74.40
22769;DHT22;13001;51.968;5.918;2023-04-08T16:30:49;15.40;74.70
22769;DHT22;13001;51.968;5.918;2023-04-08T16:33:16;15.30;75.20
22769;DHT22;13001;51.968;5.918;2023-04-08T16:35:44;15.20;75.60
22769;DHT22;13001;51.968;5.918;2023-04-08T16:38:12;15.00;76.00
22769;DHT22;13001;51.968;5.918;2023-04-08T16:40:42;14.90;76.90
22769;DHT22;13001;51.968;5.918;2023-04-08T16:43:09;14.80;77.20
22769;DHT22;13001;51.968;5.918;2023-04-08T16:45:37;14.70;77.80
22769;DHT22;13001;51.968;5.918;2023-04-08T16:48:06;14.60;78.20
22769;DHT22;13001;51.968;5.918;2023-04-08T16:50:39;14.60;78.50
22769;DHT22;13001;51.968;5.918;2023-04-08T16:53:08;14.60;78.50
22769;DHT22;13001;51.968;5.918;2023-04-08T16:55:37;14.50;79.00
22769;DHT22;13001;51.968;5.918;2023-04-08T16:58:06;14.40;79.60
22769;DHT22;13001;51.968;5.918;2023-04-08T17:00:34;14.40;80.10
22769;DHT22;13001;51.968;5.918;2023-04-08T17:03:03;14.40;80.10
22769;DHT22;13001;51.968;5.918;2023-04-08T17:05:30;14.30;80.20
22769;DHT22;13001;51.968;5.918;2023-04-08T17:07:58;14.30;80.60
22769;DHT22;13001;51.968;5.918;2023-04-08T17:10:26;14.20;81.00
22769;DHT22;13001;51.968;5.918;2023-04-08T17:12:54;14.20;81.10
22769;DHT22;13001;51.968;5.918;2023-04-08T17:15:23;14.20;81.30
22769;DHT22;13001;51.968;5.918;2023-04-08T17:17:51;14.10;81.60
22769;DHT22;13001;51.968;5.918;2023-04-08T17:20:18;14.10;82.10
22769;DHT22;13001;51.968;5.918;2023-04-08T17:22:46;14.00;82.50
22769;DHT22;13001;51.968;5.918;2023-04-08T17:25:14;14.00;82.70
22769;DHT22;13001;51.968;5.918;2023-04-08T17:27:41;14.00;82.90
22769;DHT22;13001;51.968;5.918;2023-04-08T17:30:09;13.90;83.00
22769;DHT22;13001;51.968;5.918;2023-04-08T17:32:37;13.80;83.60
22769;DHT22;13001;51.968;5.918;2023-04-08T17:35:04;13.80;84.10
22769;DHT22;13001;51.968;5.918;2023-04-08T17:37:32;13.70;84.40
22769;DHT22;13001;51.968;5.918;2023-04-08T17:39:59;13.70;84.90
22769;DHT22;13001;51.968;5.918;2023-04-08T17:42:27;13.60;85.10
22769;DHT22;13001;51.968;5.918;2023-04-08T17:44:54;13.60;85.50
22769;DHT22;13001;51.968;5.918;2023-04-08T17:47:23;13.60;85.80
22769;DHT22;13001;51.968;5.918;2023-04-08T17:49:53;13.50;86.20
22769;DHT22;13001;51.968;5.918;2023-04-08T17:52:21;13.60;86.50
22769;DHT22;13001;51.968;5.918;2023-04-08T17:54:49;13.50;86.70
22769;DHT22;13001;51.968;5.918;2023-04-08T17:57:16;13.50;86.60
22769;DHT22;13001;51.968;5.918;2023-04-08T17:59:44;13.50;86.40
22769;DHT22;13001;51.968;5.918;2023-04-08T18:02:11;13.50;86.40
22769;DHT22;13001;51.968;5.918;2023-04-08T18:04:40;13.50;86.10
22769;DHT22;13001;51.968;5.918;2023-04-08T18:07:08;13.40;86.40
22769;DHT22;13001;51.968;5.918;2023-04-08T18:09:35;13.40;86.80
22769;DHT22;13001;51.968;5.918;2023-04-08T18:12:03;13.30;87.20
22769;DHT22;13001;51.968;5.918;2023-04-08T18:14:31;13.30;87.70
22769;DHT22;13001;51.968;5.918;2023-04-08T18:17:00;13.20;87.80
22769;DHT22;13001;51.968;5.918;2023-04-08T18:19:29;13.20;88.40
22769;DHT22;13001;51.968;5.918;2023-04-08T18:21:56;13.10;88.90
22769;DHT22;13001;51.968;5.918;2023-04-08T18:24:24;13.00;89.30
22769;DHT22;13001;51.968;5.918;2023-04-08T18:26:51;13.00;89.40
22769;DHT22;13001;51.968;5.918;2023-04-08T18:29:19;13.00;89.90
22769;DHT22;13001;51.968;5.918;2023-04-08T18:31:46;12.90;90.00
22769;DHT22;13001;51.968;5.918;2023-04-08T18:34:14;12.80;90.20
22769;DHT22;13001;51.968;5.918;2023-04-08T18:36:41;12.80;90.30
22769;DHT22;13001;51.968;5.918;2023-04-08T18:39:09;12.80;90.40
22769;DHT22;13001;51.968;5.918;2023-04-08T18:41:37;12.70;90.50
22769;DHT22;13001;51.968;5.918;2023-04-08T18:44:04;12.60;90.70
22769;DHT22;13001;51.968;5.918;2023-04-08T18:46:32;12.70;90.90
22769;DHT22;13001;51.968;5.918;2023-04-08T18:48:59;12.60;91.10
22769;DHT22;13001;51.968;5.918;2023-04-08T18:51:27;12.60;91.20
22769;DHT22;13001;51.968;5.918;2023-04-08T18:53:54;12.50;91.30
22769;DHT22;13001;51.968;5.918;2023-04-08T18:56:22;12.50;91.40
22769;DHT22;13001;51.968;5.918;2023-04-08T18:58:49;12.40;91.50
22769;DHT22;13001;51.968;5.918;2023-04-08T19:01:19;12.40;91.70
22769;DHT22;13001;51.968;5.918;2023-04-08T19:03:46;12.40;91.80
22769;DHT22;13001;51.968;5.918;2023-04-08T19:06:15;12.30;91.90
22769;DHT22;13001;51.968;5.918;2023-04-08T19:08:43;12.30;92.00
22769;DHT22;13001;51.968;5.918;2023-04-08T19:11:10;12.30;92.00
22769;DHT22;13001;51.968;5.918;2023-04-08T19:13:38;12.30;92.20
22769;DHT22;13001;51.968;5.918;2023-04-08T19:16:06;12.20;92.20
22769;DHT22;13001;51.968;5.918;2023-04-08T19:18:33;12.20;92.30
22769;DHT22;13001;51.968;5.918;2023-04-08T19:21:01;12.20;92.30
22769;DHT22;13001;51.968;5.918;2023-04-08T19:23:29;12.10;92.40
22769;DHT22;13001;51.968;5.918;2023-04-08T19:25:57;12.10;92.50
22769;DHT22;13001;51.968;5.918;2023-04-08T19:28:25;12.10;92.50
22769;DHT22;13001;51.968;5.918;2023-04-08T19:30:52;12.00;92.60
22769;DHT22;13001;51.968;5.918;2023-04-08T19:33:20;12.00;92.70
22769;DHT22;13001;51.968;5.918;2023-04-08T19:35:49;11.90;92.80
22769;DHT22;13001;51.968;5.918;2023-04-08T19:53:06;11.80;92.90
22769;DHT22;13001;51.968;5.918;2023-04-08T19:55:34;11.50;93.50
22769;DHT22;13001;51.968;5.918;2023-04-08T19:58:03;11.50;93.70
22769;DHT22;13001;51.968;5.918;2023-04-08T20:00:31;11.40;93.80
22769;DHT22;13001;51.968;5.918;2023-04-08T20:02:58;11.40;93.90
22769;DHT22;13001;51.968;5.918;2023-04-08T20:32:29;11.40;94.00
22769;DHT22;13001;51.968;5.918;2023-04-08T20:34:56;11.30;94.20
